sensor_id;sensor_type;location;lat;lon;timestamp;P1;durP1;ratioP1;P2;durP2;ratioP2
62707;SDS011;48769;51.624;5.886;2023-04-25T00:01:19;19.65;;;7.40;;
62707;SDS011;48769;51.624;5.886;2023-04-25T00:03:48;27.48;;;8.43;;
62707;SDS011;48769;51.624;5.886;2023-04-25T00:06:13;20.65;;;8.23;;
62707;SDS011;48769;51.624;5.886;2023-04-25T00:08:39;19.20;;;7.78;;
62707;SDS011;48769;51.624;5.886;2023-04-25T00:11:04;23.52;;;8.43;;
62707;SDS011;48769;51.624;5.886;2023-04-25T00:13:30;27.85;;;8.52;;
62707;SDS011;48769;51.624;5.886;2023-04-25T00:15:55;20.70;;;8.00;;
62707;SDS011;48769;51.624;5.886;2023-04-25T00:18:25;28.20;;;7.55;;
62707;SDS011;48769;51.624;5.886;2023-04-25T00:20:53;19.23;;;7.45;;
62707;SDS011;48769;51.624;5.886;2023-04-25T00:23:18;27.23;;;8.48;;
62707;SDS011;48769;51.624;5.886;2023-04-25T00:25:50;28.52;;;7.80;;
62707;SDS011;48769;51.624;5.886;2023-04-25T00:28:15;21.02;;;7.53;;
62707;SDS011;48769;51.624;5.886;2023-04-25T00:30:41;18.95;;;8.07;;
62707;SDS011;48769;51.624;5.886;2023-04-25T00:33:07;25.50;;;8.30;;
62707;SDS011;48769;51.624;5.886;2023-04-25T00:35:33;21.15;;;7.18;;
62707;SDS011;48769;51.624;5.886;2023-04-25T00:37:59;21.20;;;7.53;;
62707;SDS011;48769;51.624;5.886;2023-04-25T00:40:24;24.88;;;7.32;;
62707;SDS011;48769;51.624;5.886;2023-04-25T00:42:50;19.73;;;7.15;;
62707;SDS011;48769;51.624;5.886;2023-04-25T00:45:17;16.73;;;7.50;;
62707;SDS011;48769;51.624;5.886;2023-04-25T00:47:43;19.17;;;7.47;;
62707;SDS011;48769;51.624;5.886;2023-04-25T00:50:09;21.35;;;8.05;;
62707;SDS011;48769;51.624;5.886;2023-04-25T00:52:34;17.15;;;7.50;;
62707;SDS011;48769;51.624;5.886;2023-04-25T00:55:00;14.82;;;6.63;;
62707;SDS011;48769;51.624;5.886;2023-04-25T00:57:26;20.63;;;6.82;;
62707;SDS011;48769;51.624;5.886;2023-04-25T00:59:52;25.27;;;7.65;;
62707;SDS011;48769;51.624;5.886;2023-04-25T01:02:18;16.50;;;7.18;;
62707;SDS011;48769;51.624;5.886;2023-04-25T01:04:44;22.15;;;7.25;;
62707;SDS011;48769;51.624;5.886;2023-04-25T01:07:09;22.08;;;7.38;;
62707;SDS011;48769;51.624;5.886;2023-04-25T01:09:35;16.48;;;6.05;;
62707;SDS011;48769;51.624;5.886;2023-04-25T01:12:00;22.55;;;7.63;;
62707;SDS011;48769;51.624;5.886;2023-04-25T01:14:26;20.95;;;6.55;;
62707;SDS011;48769;51.624;5.886;2023-04-25T01:16:51;20.00;;;6.78;;
62707;SDS011;48769;51.624;5.886;2023-04-25T01:19:17;19.30;;;6.97;;
62707;SDS011;48769;51.624;5.886;2023-04-25T01:21:44;18.10;;;6.78;;
62707;SDS011;48769;51.624;5.886;2023-04-25T01:24:10;17.80;;;7.38;;
62707;SDS011;48769;51.624;5.886;2023-04-25T01:26:36;21.70;;;6.90;;
62707;SDS011;48769;51.624;5.886;2023-04-25T01:29:03;20.60;;;6.90;;
62707;SDS011;48769;51.624;5.886;2023-04-25T01:31:29;22.83;;;7.30;;
62707;SDS011;48769;51.624;5.886;2023-04-25T01:33:55;17.17;;;7.45;;
62707;SDS011;48769;51.624;5.886;2023-04-25T01:36:21;23.77;;;7.18;;
62707;SDS011;48769;51.624;5.886;2023-04-25T01:38:46;29.30;;;8.68;;
62707;SDS011;48769;51.624;5.886;2023-04-25T01:41:12;25.73;;;7.00;;
62707;SDS011;48769;51.624;5.886;2023-04-25T01:43:38;20.02;;;6.95;;
62707;SDS011;48769;51.624;5.886;2023-04-25T01:46:04;23.17;;;7.53;;
62707;SDS011;48769;51.624;5.886;2023-04-25T01:48:29;24.42;;;7.60;;
62707;SDS011;48769;51.624;5.886;2023-04-25T01:50:55;16.33;;;6.65;;
62707;SDS011;48769;51.624;5.886;2023-04-25T01:53:20;25.20;;;7.55;;
62707;SDS011;48769;51.624;5.886;2023-04-25T01:55:45;32.92;;;7.68;;
62707;SDS011;48769;51.624;5.886;2023-04-25T01:58:10;24.63;;;6.93;;
62707;SDS011;48769;51.624;5.886;2023-04-25T02:00:37;21.05;;;7.38;;
62707;SDS011;48769;51.624;5.886;2023-04-25T02:03:04;28.02;;;8.35;;
62707;SDS011;48769;51.624;5.886;2023-04-25T02:05:37;27.52;;;7.57;;
62707;SDS011;48769;51.624;5.886;2023-04-25T02:08:04;22.98;;;8.13;;
62707;SDS011;48769;51.624;5.886;2023-04-25T02:10:31;26.90;;;7.07;;
62707;SDS011;48769;51.624;5.886;2023-04-25T02:12:56;22.25;;;6.80;;
62707;SDS011;48769;51.624;5.886;2023-04-25T02:15:22;22.40;;;7.72;;
62707;SDS011;48769;51.624;5.886;2023-04-25T02:17:47;23.25;;;7.45;;
62707;SDS011;48769;51.624;5.886;2023-04-25T02:20:14;31.45;;;7.85;;
62707;SDS011;48769;51.624;5.886;2023-04-25T02:22:40;30.65;;;7.95;;
62707;SDS011;48769;51.624;5.886;2023-04-25T02:25:07;23.58;;;7.32;;
62707;SDS011;48769;51.624;5.886;2023-04-25T02:27:32;36.50;;;9.57;;
62707;SDS011;48769;51.624;5.886;2023-04-25T02:29:58;23.48;;;7.70;;
62707;SDS011;48769;51.624;5.886;2023-04-25T02:32:23;32.40;;;8.57;;
62707;SDS011;48769;51.624;5.886;2023-04-25T02:34:48;26.77;;;7.47;;
62707;SDS011;48769;51.624;5.886;2023-04-25T02:37:14;26.30;;;7.82;;
62707;SDS011;48769;51.624;5.886;2023-04-25T02:39:39;27.20;;;6.63;;
62707;SDS011;48769;51.624;5.886;2023-04-25T02:42:04;29.23;;;8.00;;
62707;SDS011;48769;51.624;5.886;2023-04-25T02:44:29;30.77;;;8.10;;
62707;SDS011;48769;51.624;5.886;2023-04-25T02:46:55;25.10;;;7.53;;
62707;SDS011;48769;51.624;5.886;2023-04-25T02:49:20;25.30;;;7.82;;
62707;SDS011;48769;51.624;5.886;2023-04-25T02:51:45;29.13;;;8.32;;
62707;SDS011;48769;51.624;5.886;2023-04-25T02:54:11;23.25;;;7.88;;
62707;SDS011;48769;51.624;5.886;2023-04-25T02:56:36;24.08;;;7.90;;
62707;SDS011;48769;51.624;5.886;2023-04-25T02:59:01;24.20;;;7.70;;
62707;SDS011;48769;51.624;5.886;2023-04-25T03:01:27;28.75;;;8.18;;
62707;SDS011;48769;51.624;5.886;2023-04-25T03:03:52;26.48;;;7.93;;
62707;SDS011;48769;51.624;5.886;2023-04-25T03:06:17;28.67;;;8.70;;
62707;SDS011;48769;51.624;5.886;2023-04-25T03:08:43;26.90;;;8.57;;
62707;SDS011;48769;51.624;5.886;2023-04-25T03:11:08;25.35;;;9.38;;
62707;SDS011;48769;51.624;5.886;2023-04-25T03:13:33;28.20;;;7.57;;
62707;SDS011;48769;51.624;5.886;2023-04-25T03:16:00;29.90;;;8.70;;
62707;SDS011;48769;51.624;5.886;2023-04-25T03:18:25;23.25;;;9.20;;
62707;SDS011;48769;51.624;5.886;2023-04-25T03:20:51;21.20;;;8.02;;
62707;SDS011;48769;51.624;5.886;2023-04-25T03:23:16;30.35;;;8.52;;
62707;SDS011;48769;51.624;5.886;2023-04-25T03:25:42;38.08;;;9.55;;
62707;SDS011;48769;51.624;5.886;2023-04-25T03:28:07;29.23;;;8.35;;
62707;SDS011;48769;51.624;5.886;2023-04-25T03:30:33;24.10;;;9.57;;
62707;SDS011;48769;51.624;5.886;2023-04-25T03:32:58;23.55;;;8.75;;
62707;SDS011;48769;51.624;5.886;2023-04-25T03:35:24;33.60;;;9.52;;
62707;SDS011;48769;51.624;5.886;2023-04-25T03:37:49;32.35;;;10.30;;
62707;SDS011;48769;51.624;5.886;2023-04-25T03:40:15;33.03;;;8.65;;
62707;SDS011;48769;51.624;5.886;2023-04-25T03:42:43;22.20;;;8.40;;
62707;SDS011;48769;51.624;5.886;2023-04-25T03:45:08;32.92;;;8.75;;
62707;SDS011;48769;51.624;5.886;2023-04-25T03:47:34;21.55;;;8.75;;
62707;SDS011;48769;51.624;5.886;2023-04-25T03:49:59;28.17;;;9.00;;
62707;SDS011;48769;51.624;5.886;2023-04-25T03:52:26;23.63;;;8.77;;
62707;SDS011;48769;51.624;5.886;2023-04-25T03:54:51;27.35;;;8.35;;
62707;SDS011;48769;51.624;5.886;2023-04-25T03:57:17;26.00;;;7.93;;
62707;SDS011;48769;51.624;5.886;2023-04-25T03:59:42;23.50;;;8.05;;
62707;SDS011;48769;51.624;5.886;2023-04-25T04:02:07;24.60;;;8.45;;
62707;SDS011;48769;51.624;5.886;2023-04-25T04:04:33;30.85;;;8.85;;
62707;SDS011;48769;51.624;5.886;2023-04-25T04:06:58;33.15;;;8.85;;
62707;SDS011;48769;51.624;5.886;2023-04-25T04:09:23;27.98;;;8.85;;
62707;SDS011;48769;51.624;5.886;2023-04-25T04:11:49;35.13;;;8.63;;
62707;SDS011;48769;51.624;5.886;2023-04-25T04:14:14;33.67;;;10.27;;
62707;SDS011;48769;51.624;5.886;2023-04-25T04:16:39;19.35;;;8.68;;
62707;SDS011;48769;51.624;5.886;2023-04-25T04:19:05;25.77;;;8.55;;
62707;SDS011;48769;51.624;5.886;2023-04-25T04:21:30;41.65;;;11.65;;
62707;SDS011;48769;51.624;5.886;2023-04-25T04:23:56;30.73;;;9.27;;
62707;SDS011;48769;51.624;5.886;2023-04-25T04:26:22;27.88;;;8.35;;
62707;SDS011;48769;51.624;5.886;2023-04-25T04:28:48;26.60;;;9.48;;
62707;SDS011;48769;51.624;5.886;2023-04-25T04:31:19;26.70;;;9.15;;
62707;SDS011;48769;51.624;5.886;2023-04-25T04:33:47;31.88;;;11.48;;
62707;SDS011;48769;51.624;5.886;2023-04-25T04:36:13;31.23;;;10.90;;
62707;SDS011;48769;51.624;5.886;2023-04-25T04:38:38;31.98;;;10.50;;
62707;SDS011;48769;51.624;5.886;2023-04-25T04:41:05;24.65;;;9.23;;
62707;SDS011;48769;51.624;5.886;2023-04-25T04:43:30;31.98;;;12.20;;
62707;SDS011;48769;51.624;5.886;2023-04-25T04:45:57;33.33;;;12.90;;
62707;SDS011;48769;51.624;5.886;2023-04-25T04:48:23;32.70;;;10.07;;
62707;SDS011;48769;51.624;5.886;2023-04-25T04:50:48;27.95;;;9.88;;
62707;SDS011;48769;51.624;5.886;2023-04-25T04:53:13;25.08;;;9.55;;
62707;SDS011;48769;51.624;5.886;2023-04-25T04:55:39;29.52;;;10.70;;
62707;SDS011;48769;51.624;5.886;2023-04-25T04:58:06;31.05;;;10.55;;
62707;SDS011;48769;51.624;5.886;2023-04-25T05:00:32;27.40;;;11.50;;
62707;SDS011;48769;51.624;5.886;2023-04-25T05:02:58;25.00;;;10.45;;
62707;SDS011;48769;51.624;5.886;2023-04-25T05:05:23;28.02;;;9.75;;
62707;SDS011;48769;51.624;5.886;2023-04-25T05:07:48;29.45;;;10.23;;
62707;SDS011;48769;51.624;5.886;2023-04-25T05:10:14;32.97;;;10.38;;
62707;SDS011;48769;51.624;5.886;2023-04-25T05:12:40;33.45;;;10.80;;
62707;SDS011;48769;51.624;5.886;2023-04-25T05:15:05;32.65;;;9.60;;
62707;SDS011;48769;51.624;5.886;2023-04-25T05:17:31;21.05;;;9.27;;
62707;SDS011;48769;51.624;5.886;2023-04-25T05:19:57;25.35;;;9.25;;
62707;SDS011;48769;51.624;5.886;2023-04-25T05:22:22;24.90;;;9.45;;
62707;SDS011;48769;51.624;5.886;2023-04-25T05:24:48;26.27;;;9.25;;
62707;SDS011;48769;51.624;5.886;2023-04-25T05:27:13;25.52;;;9.00;;
62707;SDS011;48769;51.624;5.886;2023-04-25T05:29:41;27.42;;;9.77;;
62707;SDS011;48769;51.624;5.886;2023-04-25T05:32:06;32.67;;;8.88;;
62707;SDS011;48769;51.624;5.886;2023-04-25T05:34:35;32.35;;;9.30;;
62707;SDS011;48769;51.624;5.886;2023-04-25T05:37:01;21.92;;;8.15;;
62707;SDS011;48769;51.624;5.886;2023-04-25T05:39:27;26.77;;;10.30;;
62707;SDS011;48769;51.624;5.886;2023-04-25T05:41:52;25.73;;;9.35;;
62707;SDS011;48769;51.624;5.886;2023-04-25T05:44:17;29.35;;;9.70;;
62707;SDS011;48769;51.624;5.886;2023-04-25T05:46:44;26.50;;;8.88;;
62707;SDS011;48769;51.624;5.886;2023-04-25T05:49:09;24.15;;;8.75;;
62707;SDS011;48769;51.624;5.886;2023-04-25T05:51:35;29.98;;;9.45;;
62707;SDS011;48769;51.624;5.886;2023-04-25T05:54:00;22.02;;;7.80;;
62707;SDS011;48769;51.624;5.886;2023-04-25T05:56:25;30.33;;;9.15;;
62707;SDS011;48769;51.624;5.886;2023-04-25T05:58:51;24.75;;;8.60;;
62707;SDS011;48769;51.624;5.886;2023-04-25T06:01:16;25.50;;;8.00;;
62707;SDS011;48769;51.624;5.886;2023-04-25T06:03:41;25.42;;;8.02;;
62707;SDS011;48769;51.624;5.886;2023-04-25T06:06:11;23.48;;;8.07;;
62707;SDS011;48769;51.624;5.886;2023-04-25T06:08:36;24.05;;;7.70;;
62707;SDS011;48769;51.624;5.886;2023-04-25T06:11:03;17.02;;;8.07;;
62707;SDS011;48769;51.624;5.886;2023-04-25T06:13:29;21.42;;;8.07;;
62707;SDS011;48769;51.624;5.886;2023-04-25T06:15:54;25.60;;;8.43;;
62707;SDS011;48769;51.624;5.886;2023-04-25T06:18:19;29.95;;;9.63;;
62707;SDS011;48769;51.624;5.886;2023-04-25T06:20:48;19.77;;;7.88;;
62707;SDS011;48769;51.624;5.886;2023-04-25T06:23:13;19.27;;;6.78;;
62707;SDS011;48769;51.624;5.886;2023-04-25T06:25:38;18.08;;;6.57;;
62707;SDS011;48769;51.624;5.886;2023-04-25T06:28:04;25.50;;;7.30;;
62707;SDS011;48769;51.624;5.886;2023-04-25T06:30:29;19.55;;;6.93;;
62707;SDS011;48769;51.624;5.886;2023-04-25T06:32:54;20.33;;;6.55;;
62707;SDS011;48769;51.624;5.886;2023-04-25T06:35:20;30.52;;;9.93;;
62707;SDS011;48769;51.624;5.886;2023-04-25T06:37:45;22.35;;;8.43;;
62707;SDS011;48769;51.624;5.886;2023-04-25T06:40:11;19.40;;;7.22;;
62707;SDS011;48769;51.624;5.886;2023-04-25T06:42:36;25.65;;;9.43;;
62707;SDS011;48769;51.624;5.886;2023-04-25T06:45:02;25.30;;;7.65;;
62707;SDS011;48769;51.624;5.886;2023-04-25T06:47:28;18.83;;;5.85;;
62707;SDS011;48769;51.624;5.886;2023-04-25T06:49:54;17.42;;;5.65;;
62707;SDS011;48769;51.624;5.886;2023-04-25T06:52:19;22.40;;;5.68;;
62707;SDS011;48769;51.624;5.886;2023-04-25T06:54:45;14.95;;;5.28;;
62707;SDS011;48769;51.624;5.886;2023-04-25T06:57:10;17.08;;;5.32;;
62707;SDS011;48769;51.624;5.886;2023-04-25T06:59:36;18.25;;;5.30;;
62707;SDS011;48769;51.624;5.886;2023-04-25T07:02:01;13.52;;;4.75;;
62707;SDS011;48769;51.624;5.886;2023-04-25T07:04:27;19.17;;;5.80;;
62707;SDS011;48769;51.624;5.886;2023-04-25T07:06:52;14.52;;;5.15;;
62707;SDS011;48769;51.624;5.886;2023-04-25T07:09:17;10.15;;;4.03;;
62707;SDS011;48769;51.624;5.886;2023-04-25T07:11:43;16.10;;;4.10;;
62707;SDS011;48769;51.624;5.886;2023-04-25T07:14:08;13.02;;;4.28;;
62707;SDS011;48769;51.624;5.886;2023-04-25T07:16:33;22.33;;;5.00;;
62707;SDS011;48769;51.624;5.886;2023-04-25T07:18:59;14.30;;;4.38;;
62707;SDS011;48769;51.624;5.886;2023-04-25T07:21:24;11.95;;;4.35;;
62707;SDS011;48769;51.624;5.886;2023-04-25T07:23:50;13.52;;;3.90;;
62707;SDS011;48769;51.624;5.886;2023-04-25T07:26:15;16.02;;;4.43;;
62707;SDS011;48769;51.624;5.886;2023-04-25T07:28:41;15.77;;;4.15;;
62707;SDS011;48769;51.624;5.886;2023-04-25T07:31:07;10.95;;;3.50;;
62707;SDS011;48769;51.624;5.886;2023-04-25T07:33:33;18.02;;;4.60;;
62707;SDS011;48769;51.624;5.886;2023-04-25T07:35:58;13.20;;;4.05;;
62707;SDS011;48769;51.624;5.886;2023-04-25T07:38:23;12.60;;;3.55;;
62707;SDS011;48769;51.624;5.886;2023-04-25T07:40:49;15.68;;;3.63;;
62707;SDS011;48769;51.624;5.886;2023-04-25T07:43:14;14.85;;;3.63;;
62707;SDS011;48769;51.624;5.886;2023-04-25T07:45:42;7.50;;;2.63;;
62707;SDS011;48769;51.624;5.886;2023-04-25T07:48:08;14.82;;;3.47;;
62707;SDS011;48769;51.624;5.886;2023-04-25T07:50:33;13.90;;;3.45;;
62707;SDS011;48769;51.624;5.886;2023-04-25T07:52:59;13.98;;;3.40;;
62707;SDS011;48769;51.624;5.886;2023-04-25T07:55:24;12.98;;;2.92;;
62707;SDS011;48769;51.624;5.886;2023-04-25T07:57:49;13.68;;;3.35;;
62707;SDS011;48769;51.624;5.886;2023-04-25T08:00:15;12.45;;;3.45;;
62707;SDS011;48769;51.624;5.886;2023-04-25T08:02:40;14.75;;;2.78;;
62707;SDS011;48769;51.624;5.886;2023-04-25T08:05:06;10.23;;;2.78;;
62707;SDS011;48769;51.624;5.886;2023-04-25T08:07:33;12.63;;;2.70;;
62707;SDS011;48769;51.624;5.886;2023-04-25T08:09:59;11.05;;;3.13;;
62707;SDS011;48769;51.624;5.886;2023-04-25T08:12:24;13.38;;;3.00;;
62707;SDS011;48769;51.624;5.886;2023-04-25T08:14:49;16.73;;;4.25;;
62707;SDS011;48769;51.624;5.886;2023-04-25T08:17:15;14.20;;;3.35;;
62707;SDS011;48769;51.624;5.886;2023-04-25T08:19:40;11.40;;;2.83;;
62707;SDS011;48769;51.624;5.886;2023-04-25T08:22:06;11.27;;;2.72;;
62707;SDS011;48769;51.624;5.886;2023-04-25T08:24:31;13.20;;;2.40;;
62707;SDS011;48769;51.624;5.886;2023-04-25T08:26:57;10.73;;;3.10;;
62707;SDS011;48769;51.624;5.886;2023-04-25T08:29:23;12.45;;;2.42;;
62707;SDS011;48769;51.624;5.886;2023-04-25T08:31:50;12.63;;;2.90;;
62707;SDS011;48769;51.624;5.886;2023-04-25T08:34:17;10.23;;;2.15;;
62707;SDS011;48769;51.624;5.886;2023-04-25T08:36:43;9.85;;;2.20;;
62707;SDS011;48769;51.624;5.886;2023-04-25T08:39:08;11.35;;;2.80;;
62707;SDS011;48769;51.624;5.886;2023-04-25T08:41:34;14.88;;;3.03;;
62707;SDS011;48769;51.624;5.886;2023-04-25T08:44:01;19.13;;;3.03;;
62707;SDS011;48769;51.624;5.886;2023-04-25T08:46:29;10.48;;;2.42;;
62707;SDS011;48769;51.624;5.886;2023-04-25T08:48:57;10.40;;;2.20;;
62707;SDS011;48769;51.624;5.886;2023-04-25T08:51:25;11.57;;;2.60;;
62707;SDS011;48769;51.624;5.886;2023-04-25T08:53:53;15.18;;;2.47;;
62707;SDS011;48769;51.624;5.886;2023-04-25T08:56:18;7.75;;;2.40;;
62707;SDS011;48769;51.624;5.886;2023-04-25T08:58:47;10.70;;;2.50;;
62707;SDS011;48769;51.624;5.886;2023-04-25T09:01:14;11.57;;;2.60;;
62707;SDS011;48769;51.624;5.886;2023-04-25T09:03:39;9.18;;;1.75;;
62707;SDS011;48769;51.624;5.886;2023-04-25T09:06:05;9.80;;;2.22;;
62707;SDS011;48769;51.624;5.886;2023-04-25T09:08:30;13.00;;;2.55;;
62707;SDS011;48769;51.624;5.886;2023-04-25T09:10:55;14.45;;;2.85;;
62707;SDS011;48769;51.624;5.886;2023-04-25T09:13:25;8.00;;;2.25;;
62707;SDS011;48769;51.624;5.886;2023-04-25T09:15:55;7.13;;;1.98;;
62707;SDS011;48769;51.624;5.886;2023-04-25T09:18:31;7.72;;;2.08;;
62707;SDS011;48769;51.624;5.886;2023-04-25T09:21:08;11.38;;;2.25;;
62707;SDS011;48769;51.624;5.886;2023-04-25T09:23:41;9.57;;;2.50;;
62707;SDS011;48769;51.624;5.886;2023-04-25T09:26:09;7.93;;;2.13;;
62707;SDS011;48769;51.624;5.886;2023-04-25T09:28:35;9.55;;;2.30;;
62707;SDS011;48769;51.624;5.886;2023-04-25T09:31:02;14.93;;;2.47;;
62707;SDS011;48769;51.624;5.886;2023-04-25T09:33:28;12.45;;;2.85;;
62707;SDS011;48769;51.624;5.886;2023-04-25T09:35:56;9.98;;;2.72;;
62707;SDS011;48769;51.624;5.886;2023-04-25T09:38:27;5.47;;;1.77;;
62707;SDS011;48769;51.624;5.886;2023-04-25T09:40:55;8.73;;;2.08;;
62707;SDS011;48769;51.624;5.886;2023-04-25T09:43:24;14.63;;;2.88;;
62707;SDS011;48769;51.624;5.886;2023-04-25T09:45:50;10.40;;;2.22;;
62707;SDS011;48769;51.624;5.886;2023-04-25T09:48:18;10.30;;;2.10;;
62707;SDS011;48769;51.624;5.886;2023-04-25T09:50:45;13.30;;;2.40;;
62707;SDS011;48769;51.624;5.886;2023-04-25T09:53:44;7.45;;;2.30;;
62707;SDS011;48769;51.624;5.886;2023-04-25T09:56:11;9.68;;;2.15;;
62707;SDS011;48769;51.624;5.886;2023-04-25T09:58:39;13.93;;;2.05;;
62707;SDS011;48769;51.624;5.886;2023-04-25T10:01:06;8.27;;;1.88;;
62707;SDS011;48769;51.624;5.886;2023-04-25T10:03:36;5.72;;;1.65;;
62707;SDS011;48769;51.624;5.886;2023-04-25T10:06:08;7.07;;;1.63;;
62707;SDS011;48769;51.624;5.886;2023-04-25T10:08:42;8.53;;;1.73;;
62707;SDS011;48769;51.624;5.886;2023-04-25T10:11:08;10.38;;;2.30;;
62707;SDS011;48769;51.624;5.886;2023-04-25T10:13:34;14.27;;;2.65;;
62707;SDS011;48769;51.624;5.886;2023-04-25T10:16:01;12.07;;;2.90;;
62707;SDS011;48769;51.624;5.886;2023-04-25T10:18:28;14.75;;;2.50;;
62707;SDS011;48769;51.624;5.886;2023-04-25T10:20:55;9.85;;;2.58;;
62707;SDS011;48769;51.624;5.886;2023-04-25T10:23:22;10.20;;;2.80;;
62707;SDS011;48769;51.624;5.886;2023-04-25T10:25:49;12.25;;;3.13;;
62707;SDS011;48769;51.624;5.886;2023-04-25T10:28:16;14.00;;;3.65;;
62707;SDS011;48769;51.624;5.886;2023-04-25T10:33:57;10.30;;;2.92;;
62707;SDS011;48769;51.624;5.886;2023-04-25T10:36:18;12.13;;;3.15;;
62707;SDS011;48769;51.624;5.886;2023-04-25T10:38:48;11.23;;;2.78;;
62707;SDS011;48769;51.624;5.886;2023-04-25T10:41:17;10.88;;;2.88;;
62707;SDS011;48769;51.624;5.886;2023-04-25T10:43:44;13.98;;;3.22;;
62707;SDS011;48769;51.624;5.886;2023-04-25T10:46:21;8.52;;;2.63;;
62707;SDS011;48769;51.624;5.886;2023-04-25T10:48:55;11.43;;;2.65;;
62707;SDS011;48769;51.624;5.886;2023-04-25T10:56:26;8.75;;;2.17;;
62707;SDS011;48769;51.624;5.886;2023-04-25T11:01:41;9.70;;;2.33;;
62707;SDS011;48769;51.624;5.886;2023-04-25T11:09:28;5.45;;;1.88;;
62707;SDS011;48769;51.624;5.886;2023-04-25T11:11:55;8.40;;;1.73;;
62707;SDS011;48769;51.624;5.886;2023-04-25T11:14:23;7.88;;;1.48;;
62707;SDS011;48769;51.624;5.886;2023-04-25T11:16:53;11.68;;;1.90;;
62707;SDS011;48769;51.624;5.886;2023-04-25T11:19:20;11.43;;;2.30;;
62707;SDS011;48769;51.624;5.886;2023-04-25T11:21:45;12.35;;;2.30;;
62707;SDS011;48769;51.624;5.886;2023-04-25T11:24:11;7.75;;;2.05;;
62707;SDS011;48769;51.624;5.886;2023-04-25T11:26:36;7.22;;;2.40;;
62707;SDS011;48769;51.624;5.886;2023-04-25T11:29:02;8.52;;;2.30;;
62707;SDS011;48769;51.624;5.886;2023-04-25T11:31:28;7.25;;;1.77;;
62707;SDS011;48769;51.624;5.886;2023-04-25T11:33:56;7.55;;;1.80;;
62707;SDS011;48769;51.624;5.886;2023-04-25T11:36:22;10.63;;;1.83;;
62707;SDS011;48769;51.624;5.886;2023-04-25T11:38:49;5.72;;;1.55;;
62707;SDS011;48769;51.624;5.886;2023-04-25T11:41:15;8.70;;;1.83;;
62707;SDS011;48769;51.624;5.886;2023-04-25T11:43:42;6.35;;;1.48;;
62707;SDS011;48769;51.624;5.886;2023-04-25T11:46:08;10.95;;;2.65;;
62707;SDS011;48769;51.624;5.886;2023-04-25T11:48:40;9.73;;;2.28;;
62707;SDS011;48769;51.624;5.886;2023-04-25T11:53:32;7.63;;;2.60;;
62707;SDS011;48769;51.624;5.886;2023-04-25T11:55:57;9.40;;;2.25;;
62707;SDS011;48769;51.624;5.886;2023-04-25T11:58:23;8.65;;;2.58;;
62707;SDS011;48769;51.624;5.886;2023-04-25T12:00:48;12.40;;;3.10;;
62707;SDS011;48769;51.624;5.886;2023-04-25T12:03:14;8.73;;;2.13;;
62707;SDS011;48769;51.624;5.886;2023-04-25T12:05:39;9.57;;;2.55;;
62707;SDS011;48769;51.624;5.886;2023-04-25T12:08:14;5.97;;;1.73;;
62707;SDS011;48769;51.624;5.886;2023-04-25T12:10:45;7.55;;;1.83;;
62707;SDS011;48769;51.624;5.886;2023-04-25T12:13:44;8.45;;;1.90;;
62707;SDS011;48769;51.624;5.886;2023-04-25T12:16:03;11.32;;;1.95;;
62707;SDS011;48769;51.624;5.886;2023-04-25T12:18:28;6.47;;;1.70;;
62707;SDS011;48769;51.624;5.886;2023-04-25T12:20:53;9.27;;;1.90;;
62707;SDS011;48769;51.624;5.886;2023-04-25T12:23:28;10.60;;;2.05;;
62707;SDS011;48769;51.624;5.886;2023-04-25T12:25:53;10.55;;;1.80;;
62707;SDS011;48769;51.624;5.886;2023-04-25T12:30:52;6.38;;;1.40;;
62707;SDS011;48769;51.624;5.886;2023-04-25T12:33:18;4.88;;;1.50;;
62707;SDS011;48769;51.624;5.886;2023-04-25T12:35:44;5.57;;;1.92;;
62707;SDS011;48769;51.624;5.886;2023-04-25T12:38:09;4.07;;;1.60;;
62707;SDS011;48769;51.624;5.886;2023-04-25T12:40:34;6.10;;;1.20;;
62707;SDS011;48769;51.624;5.886;2023-04-25T12:43:00;3.00;;;1.10;;
62707;SDS011;48769;51.624;5.886;2023-04-25T12:45:25;4.53;;;1.52;;
62707;SDS011;48769;51.624;5.886;2023-04-25T12:47:51;5.22;;;1.10;;
62707;SDS011;48769;51.624;5.886;2023-04-25T12:50:16;4.85;;;1.20;;
62707;SDS011;48769;51.624;5.886;2023-04-25T12:52:41;6.15;;;1.20;;
62707;SDS011;48769;51.624;5.886;2023-04-25T12:55:06;7.65;;;1.42;;
62707;SDS011;48769;51.624;5.886;2023-04-25T12:57:32;3.35;;;1.05;;
62707;SDS011;48769;51.624;5.886;2023-04-25T12:59:57;4.03;;;1.20;;
62707;SDS011;48769;51.624;5.886;2023-04-25T13:02:22;2.85;;;1.42;;
62707;SDS011;48769;51.624;5.886;2023-04-25T13:04:48;5.22;;;1.20;;
62707;SDS011;48769;51.624;5.886;2023-04-25T13:07:13;2.05;;;0.98;;
62707;SDS011;48769;51.624;5.886;2023-04-25T13:09:38;4.38;;;1.42;;
62707;SDS011;48769;51.624;5.886;2023-04-25T13:12:04;3.53;;;1.40;;
62707;SDS011;48769;51.624;5.886;2023-04-25T13:14:30;5.10;;;2.20;;
62707;SDS011;48769;51.624;5.886;2023-04-25T13:16:55;6.50;;;1.77;;
62707;SDS011;48769;51.624;5.886;2023-04-25T13:19:21;10.48;;;2.80;;
62707;SDS011;48769;51.624;5.886;2023-04-25T13:21:50;9.52;;;2.80;;
62707;SDS011;48769;51.624;5.886;2023-04-25T13:24:16;8.18;;;2.50;;
62707;SDS011;48769;51.624;5.886;2023-04-25T13:26:41;10.15;;;2.20;;
62707;SDS011;48769;51.624;5.886;2023-04-25T13:29:06;8.63;;;2.13;;
62707;SDS011;48769;51.624;5.886;2023-04-25T13:31:32;7.70;;;1.80;;
62707;SDS011;48769;51.624;5.886;2023-04-25T13:33:57;7.35;;;2.13;;
62707;SDS011;48769;51.624;5.886;2023-04-25T13:36:22;7.22;;;2.17;;
62707;SDS011;48769;51.624;5.886;2023-04-25T13:38:48;5.03;;;1.95;;
62707;SDS011;48769;51.624;5.886;2023-04-25T13:41:14;10.25;;;2.10;;
62707;SDS011;48769;51.624;5.886;2023-04-25T13:43:43;7.80;;;1.92;;
62707;SDS011;48769;51.624;5.886;2023-04-25T13:46:08;8.90;;;2.83;;
62707;SDS011;48769;51.624;5.886;2023-04-25T13:48:34;9.95;;;2.30;;
62707;SDS011;48769;51.624;5.886;2023-04-25T13:51:00;10.75;;;2.17;;
62707;SDS011;48769;51.624;5.886;2023-04-25T13:53:25;5.88;;;2.30;;
62707;SDS011;48769;51.624;5.886;2023-04-25T13:55:51;9.27;;;2.35;;
62707;SDS011;48769;51.624;5.886;2023-04-25T13:58:16;10.50;;;2.20;;
62707;SDS011;48769;51.624;5.886;2023-04-25T14:00:41;6.45;;;1.65;;
62707;SDS011;48769;51.624;5.886;2023-04-25T14:03:08;10.60;;;3.03;;
62707;SDS011;48769;51.624;5.886;2023-04-25T14:05:34;6.97;;;1.90;;
62707;SDS011;48769;51.624;5.886;2023-04-25T14:08:07;11.57;;;2.25;;
62707;SDS011;48769;51.624;5.886;2023-04-25T14:10:33;8.13;;;1.88;;
62707;SDS011;48769;51.624;5.886;2023-04-25T14:13:00;11.80;;;1.75;;
62707;SDS011;48769;51.624;5.886;2023-04-25T14:15:25;6.68;;;2.10;;
62707;SDS011;48769;51.624;5.886;2023-04-25T14:17:51;6.63;;;1.95;;
62707;SDS011;48769;51.624;5.886;2023-04-25T14:20:16;8.15;;;1.83;;
62707;SDS011;48769;51.624;5.886;2023-04-25T14:22:45;6.85;;;2.20;;
62707;SDS011;48769;51.624;5.886;2023-04-25T14:25:10;4.40;;;1.60;;
62707;SDS011;48769;51.624;5.886;2023-04-25T14:27:35;5.57;;;2.03;;
62707;SDS011;48769;51.624;5.886;2023-04-25T14:30:01;5.97;;;2.00;;
62707;SDS011;48769;51.624;5.886;2023-04-25T14:32:26;5.65;;;1.75;;
62707;SDS011;48769;51.624;5.886;2023-04-25T14:34:52;7.50;;;1.92;;
62707;SDS011;48769;51.624;5.886;2023-04-25T14:37:17;5.97;;;1.60;;
62707;SDS011;48769;51.624;5.886;2023-04-25T14:39:42;6.82;;;1.73;;
62707;SDS011;48769;51.624;5.886;2023-04-25T14:42:08;7.47;;;1.48;;
62707;SDS011;48769;51.624;5.886;2023-04-25T14:44:33;7.30;;;1.55;;
62707;SDS011;48769;51.624;5.886;2023-04-25T14:46:58;5.85;;;1.70;;
62707;SDS011;48769;51.624;5.886;2023-04-25T14:49:24;5.72;;;1.30;;
62707;SDS011;48769;51.624;5.886;2023-04-25T14:51:49;4.78;;;1.23;;
62707;SDS011;48769;51.624;5.886;2023-04-25T14:54:14;6.85;;;1.58;;